Terminal Aerodrome Forecast
Issued by NWS Shreveport, LA

Home | Current Version | Previous Version | Text Only | Print | Product List | Glossary On
Versions: 1 2 3 4 5 6 7 8 9 10 11 12 13 14 15 16 17 18
000
FTUS44 KSHV 251721
TAFGGG
TAF
KGGG 251721Z 2518/2618 08007KT P6SM BKN050 OVC120
     FM252000 08007KT P6SM SCT080 SCT150
     FM260000 07005KT P6SM SCT100 SCT250
     FM260900 08004KT P6SM BKN050 BKN250=

USA.gov is the U.S. government's official web portal to all federal, state and local government web resources and services.